sensor_id;sensor_type;location;lat;lon;timestamp;temperature;humidity
53254;DHT22;39148;53.332;6.922;2023-03-31T00:02:24;12.60;91.10
53254;DHT22;39148;53.332;6.922;2023-03-31T00:07:20;12.70;90.20
53254;DHT22;39148;53.332;6.922;2023-03-31T00:12:15;12.60;90.50
53254;DHT22;39148;53.332;6.922;2023-03-31T00:17:08;12.70;91.20
53254;DHT22;39148;53.332;6.922;2023-03-31T00:19:35;12.70;90.00
53254;DHT22;39148;53.332;6.922;2023-03-31T00:29:30;12.70;90.20
53254;DHT22;39148;53.332;6.922;2023-03-31T00:36:50;12.60;90.80
53254;DHT22;39148;53.332;6.922;2023-03-31T00:39:21;12.50;90.20
53254;DHT22;39148;53.332;6.922;2023-03-31T00:44:21;12.50;90.20
53254;DHT22;39148;53.332;6.922;2023-03-31T00:49:48;12.60;90.20
53254;DHT22;39148;53.332;6.922;2023-03-31T00:52:23;12.60;89.50
53254;DHT22;39148;53.332;6.922;2023-03-31T00:54:59;12.50;90.10
53254;DHT22;39148;53.332;6.922;2023-03-31T01:00:00;12.60;90.70
53254;DHT22;39148;53.332;6.922;2023-03-31T01:04:58;12.40;91.10
53254;DHT22;39148;53.332;6.922;2023-03-31T01:07:41;12.50;90.20
53254;DHT22;39148;53.332;6.922;2023-03-31T01:20:02;12.50;89.30
53254;DHT22;39148;53.332;6.922;2023-03-31T01:28:13;12.50;89.30
53254;DHT22;39148;53.332;6.922;2023-03-31T01:39:13;12.50;89.90
53254;DHT22;39148;53.332;6.922;2023-03-31T01:41:57;12.50;89.30
53254;DHT22;39148;53.332;6.922;2023-03-31T01:46:59;12.40;89.30
53254;DHT22;39148;53.332;6.922;2023-03-31T02:07:58;12.40;90.30
53254;DHT22;39148;53.332;6.922;2023-03-31T02:10:28;12.30;90.10
53254;DHT22;39148;53.332;6.922;2023-03-31T02:15:25;12.30;90.10
53254;DHT22;39148;53.332;6.922;2023-03-31T02:17:55;12.40;90.20
53254;DHT22;39148;53.332;6.922;2023-03-31T02:20:21;12.30;90.10
53254;DHT22;39148;53.332;6.922;2023-03-31T02:25:18;12.30;90.20
53254;DHT22;39148;53.332;6.922;2023-03-31T02:27:52;12.30;90.20
53254;DHT22;39148;53.332;6.922;2023-03-31T02:37:42;12.30;90.10
53254;DHT22;39148;53.332;6.922;2023-03-31T02:40:11;12.30;90.20
53254;DHT22;39148;53.332;6.922;2023-03-31T02:47:53;12.30;89.80
53254;DHT22;39148;53.332;6.922;2023-03-31T02:50:23;12.40;90.20
53254;DHT22;39148;53.332;6.922;2023-03-31T03:16:45;12.20;90.90
53254;DHT22;39148;53.332;6.922;2023-03-31T03:26:36;12.20;91.10
53254;DHT22;39148;53.332;6.922;2023-03-31T03:38:48;12.10;91.10
53254;DHT22;39148;53.332;6.922;2023-03-31T03:41:13;12.00;91.10
53254;DHT22;39148;53.332;6.922;2023-03-31T03:55:51;12.00;90.60
53254;DHT22;39148;53.332;6.922;2023-03-31T04:00:44;12.10;90.70
53254;DHT22;39148;53.332;6.922;2023-03-31T04:10:30;12.00;90.30
53254;DHT22;39148;53.332;6.922;2023-03-31T04:30:24;11.90;90.30
53254;DHT22;39148;53.332;6.922;2023-03-31T04:38:02;11.80;90.90
53254;DHT22;39148;53.332;6.922;2023-03-31T04:40:28;12.00;91.00
53254;DHT22;39148;53.332;6.922;2023-03-31T04:52:38;11.80;91.10
53254;DHT22;39148;53.332;6.922;2023-03-31T04:59:57;11.70;90.10
53254;DHT22;39148;53.332;6.922;2023-03-31T05:12:12;11.70;91.10
53254;DHT22;39148;53.332;6.922;2023-03-31T05:19:30;11.80;90.60
53254;DHT22;39148;53.332;6.922;2023-03-31T05:21:56;11.80;91.10
53254;DHT22;39148;53.332;6.922;2023-03-31T05:29:20;11.90;90.30
53254;DHT22;39148;53.332;6.922;2023-03-31T05:36:38;11.80;90.00
53254;DHT22;39148;53.332;6.922;2023-03-31T05:46:24;11.70;90.10
53254;DHT22;39148;53.332;6.922;2023-03-31T06:03:39;11.70;91.10
53254;DHT22;39148;53.332;6.922;2023-03-31T06:06:06;11.60;91.10
53254;DHT22;39148;53.332;6.922;2023-03-31T06:15:56;11.70;90.20
53254;DHT22;39148;53.332;6.922;2023-03-31T06:23:14;11.70;90.80
53254;DHT22;39148;53.332;6.922;2023-03-31T06:25:40;11.70;91.00
53254;DHT22;39148;53.332;6.922;2023-03-31T06:28:06;11.80;91.20
53254;DHT22;39148;53.332;6.922;2023-03-31T06:42:43;11.70;91.20
53254;DHT22;39148;53.332;6.922;2023-03-31T06:52:32;11.70;91.20
53254;DHT22;39148;53.332;6.922;2023-03-31T06:59:51;11.70;90.20
53254;DHT22;39148;53.332;6.922;2023-03-31T07:02:16;11.70;90.70
53254;DHT22;39148;53.332;6.922;2023-03-31T07:04:42;11.60;90.90
53254;DHT22;39148;53.332;6.922;2023-03-31T07:07:08;11.60;91.10
53254;DHT22;39148;53.332;6.922;2023-03-31T07:21:47;11.70;90.40
53254;DHT22;39148;53.332;6.922;2023-03-31T07:26:39;11.60;90.60
53254;DHT22;39148;53.332;6.922;2023-03-31T07:31:31;11.60;90.00
53254;DHT22;39148;53.332;6.922;2023-03-31T07:43:44;11.60;90.70
53254;DHT22;39148;53.332;6.922;2023-03-31T07:48:45;11.70;90.30
53254;DHT22;39148;53.332;6.922;2023-03-31T07:53:38;11.70;90.90
53254;DHT22;39148;53.332;6.922;2023-03-31T07:58:30;11.80;90.50
53254;DHT22;39148;53.332;6.922;2023-03-31T08:15:35;11.70;90.80
53254;DHT22;39148;53.332;6.922;2023-03-31T08:18:02;11.60;90.30
53254;DHT22;39148;53.332;6.922;2023-03-31T08:37:37;11.80;91.10
53254;DHT22;39148;53.332;6.922;2023-03-31T08:42:44;11.80;89.90
53254;DHT22;39148;53.332;6.922;2023-03-31T09:39:13;11.80;90.40
53254;DHT22;39148;53.332;6.922;2023-03-31T09:46:58;11.70;90.40
53254;DHT22;39148;53.332;6.922;2023-03-31T09:54:44;11.80;90.20
53254;DHT22;39148;53.332;6.922;2023-03-31T10:13:09;11.80;89.80
53254;DHT22;39148;53.332;6.922;2023-03-31T10:18:04;11.80;90.30
53254;DHT22;39148;53.332;6.922;2023-03-31T10:20:36;11.80;91.10
53254;DHT22;39148;53.332;6.922;2023-03-31T10:40:47;11.80;90.20
53254;DHT22;39148;53.332;6.922;2023-03-31T10:48:37;11.80;90.40
53254;DHT22;39148;53.332;6.922;2023-03-31T11:07:11;11.90;90.00
53254;DHT22;39148;53.332;6.922;2023-03-31T11:12:16;11.90;91.40
53254;DHT22;39148;53.332;6.922;2023-03-31T11:14:53;11.90;90.00
53254;DHT22;39148;53.332;6.922;2023-03-31T11:33:00;11.90;91.20
53254;DHT22;39148;53.332;6.922;2023-03-31T11:51:02;11.90;90.50
53254;DHT22;39148;53.332;6.922;2023-03-31T11:55:58;11.90;90.20
53254;DHT22;39148;53.332;6.922;2023-03-31T12:18:56;12.00;90.40
53254;DHT22;39148;53.332;6.922;2023-03-31T12:47:13;12.30;90.40
53254;DHT22;39148;53.332;6.922;2023-03-31T12:52:23;12.40;90.20
53254;DHT22;39148;53.332;6.922;2023-03-31T12:57:20;12.30;90.80
53254;DHT22;39148;53.332;6.922;2023-03-31T13:10:31;12.50;90.60
53254;DHT22;39148;53.332;6.922;2023-03-31T13:23:18;12.50;90.90
53254;DHT22;39148;53.332;6.922;2023-03-31T13:30:50;12.80;90.90
53254;DHT22;39148;53.332;6.922;2023-03-31T13:39:02;12.60;90.30
53254;DHT22;39148;53.332;6.922;2023-03-31T13:46:56;12.80;90.30
53254;DHT22;39148;53.332;6.922;2023-03-31T13:49:52;12.80;90.90
53254;DHT22;39148;53.332;6.922;2023-03-31T13:53:11;12.70;90.70
53254;DHT22;39148;53.332;6.922;2023-03-31T13:55:51;12.80;90.40
53254;DHT22;39148;53.332;6.922;2023-03-31T14:06:52;12.90;90.20
53254;DHT22;39148;53.332;6.922;2023-03-31T14:09:30;12.90;90.20
53254;DHT22;39148;53.332;6.922;2023-03-31T14:12:00;12.90;90.30
53254;DHT22;39148;53.332;6.922;2023-03-31T14:17:10;13.00;91.10
53254;DHT22;39148;53.332;6.922;2023-03-31T14:34:23;13.00;90.20
53254;DHT22;39148;53.332;6.922;2023-03-31T14:39:26;13.30;90.90
53254;DHT22;39148;53.332;6.922;2023-03-31T14:41:55;13.00;91.80
53254;DHT22;39148;53.332;6.922;2023-03-31T14:44:24;12.90;90.90
53254;DHT22;39148;53.332;6.922;2023-03-31T14:46:50;13.10;90.70
53254;DHT22;39148;53.332;6.922;2023-03-31T14:49:24;13.10;90.40
53254;DHT22;39148;53.332;6.922;2023-03-31T14:51:52;13.10;91.00
53254;DHT22;39148;53.332;6.922;2023-03-31T14:54:20;13.10;90.90
53254;DHT22;39148;53.332;6.922;2023-03-31T14:56:57;13.10;90.40
53254;DHT22;39148;53.332;6.922;2023-03-31T14:59:26;13.20;91.80
53254;DHT22;39148;53.332;6.922;2023-03-31T15:04:22;13.20;90.90
53254;DHT22;39148;53.332;6.922;2023-03-31T15:06:49;13.30;90.90
53254;DHT22;39148;53.332;6.922;2023-03-31T15:09:28;13.20;91.60
53254;DHT22;39148;53.332;6.922;2023-03-31T15:12:00;13.10;90.90
53254;DHT22;39148;53.332;6.922;2023-03-31T15:14:31;13.10;90.30
53254;DHT22;39148;53.332;6.922;2023-03-31T15:19:29;13.20;90.80
53254;DHT22;39148;53.332;6.922;2023-03-31T15:22:13;13.20;90.30
53254;DHT22;39148;53.332;6.922;2023-03-31T15:27:15;13.20;90.80
53254;DHT22;39148;53.332;6.922;2023-03-31T15:29:46;13.20;90.80
53254;DHT22;39148;53.332;6.922;2023-03-31T15:34:42;13.20;90.40
53254;DHT22;39148;53.332;6.922;2023-03-31T15:37:11;13.30;91.70
53254;DHT22;39148;53.332;6.922;2023-03-31T15:42:05;13.30;90.70
53254;DHT22;39148;53.332;6.922;2023-03-31T15:44:53;13.30;90.20
53254;DHT22;39148;53.332;6.922;2023-03-31T15:47:23;13.40;90.70
53254;DHT22;39148;53.332;6.922;2023-03-31T15:49:57;13.30;90.70
53254;DHT22;39148;53.332;6.922;2023-03-31T15:52:36;13.40;90.50
53254;DHT22;39148;53.332;6.922;2023-03-31T15:57:54;13.40;90.70
53254;DHT22;39148;53.332;6.922;2023-03-31T16:11:18;13.20;90.10
53254;DHT22;39148;53.332;6.922;2023-03-31T16:13:50;13.40;90.70
53254;DHT22;39148;53.332;6.922;2023-03-31T16:16:19;13.30;90.60
53254;DHT22;39148;53.332;6.922;2023-03-31T16:18:49;13.20;90.60
53254;DHT22;39148;53.332;6.922;2023-03-31T16:21:25;13.40;90.10
53254;DHT22;39148;53.332;6.922;2023-03-31T16:23:56;13.40;90.60
53254;DHT22;39148;53.332;6.922;2023-03-31T16:26:24;13.40;91.50
53254;DHT22;39148;53.332;6.922;2023-03-31T16:28:52;13.50;90.60
53254;DHT22;39148;53.332;6.922;2023-03-31T16:33:56;13.40;90.60
53254;DHT22;39148;53.332;6.922;2023-03-31T16:36:22;13.60;91.50
53254;DHT22;39148;53.332;6.922;2023-03-31T16:38:50;13.40;90.60
53254;DHT22;39148;53.332;6.922;2023-03-31T16:43:44;13.30;91.40
53254;DHT22;39148;53.332;6.922;2023-03-31T16:48:36;13.40;91.10
53254;DHT22;39148;53.332;6.922;2023-03-31T16:51:02;13.50;91.30
53254;DHT22;39148;53.332;6.922;2023-03-31T16:53:31;13.50;90.60
53254;DHT22;39148;53.332;6.922;2023-03-31T16:58:25;13.40;90.50
53254;DHT22;39148;53.332;6.922;2023-03-31T17:00:55;13.40;90.60
53254;DHT22;39148;53.332;6.922;2023-03-31T17:05:51;13.40;91.10
53254;DHT22;39148;53.332;6.922;2023-03-31T17:08:18;13.40;90.50
53254;DHT22;39148;53.332;6.922;2023-03-31T17:11:02;13.50;90.00
53254;DHT22;39148;53.332;6.922;2023-03-31T17:13:30;13.50;91.30
53254;DHT22;39148;53.332;6.922;2023-03-31T17:15:57;13.50;90.90
53254;DHT22;39148;53.332;6.922;2023-03-31T17:18:24;13.50;90.50
53254;DHT22;39148;53.332;6.922;2023-03-31T17:23:19;13.50;90.50
53254;DHT22;39148;53.332;6.922;2023-03-31T17:25:47;13.50;90.50
53254;DHT22;39148;53.332;6.922;2023-03-31T17:30:39;13.30;91.10
53254;DHT22;39148;53.332;6.922;2023-03-31T17:33:06;13.50;91.10
53254;DHT22;39148;53.332;6.922;2023-03-31T17:37:58;13.50;90.70
53254;DHT22;39148;53.332;6.922;2023-03-31T17:42:51;13.50;90.30
53254;DHT22;39148;53.332;6.922;2023-03-31T17:45:17;13.50;90.50
53254;DHT22;39148;53.332;6.922;2023-03-31T17:50:10;13.60;90.40
53254;DHT22;39148;53.332;6.922;2023-03-31T17:57:30;13.50;91.20
53254;DHT22;39148;53.332;6.922;2023-03-31T17:59:56;13.40;91.20
53254;DHT22;39148;53.332;6.922;2023-03-31T18:07:15;13.50;90.50
53254;DHT22;39148;53.332;6.922;2023-03-31T18:09:43;13.50;91.40
53254;DHT22;39148;53.332;6.922;2023-03-31T18:14:35;13.60;91.10
53254;DHT22;39148;53.332;6.922;2023-03-31T18:24:20;13.60;90.50
53254;DHT22;39148;53.332;6.922;2023-03-31T18:29:13;13.40;90.60
53254;DHT22;39148;53.332;6.922;2023-03-31T18:31:39;13.40;91.40
53254;DHT22;39148;53.332;6.922;2023-03-31T18:36:31;13.30;91.20
53254;DHT22;39148;53.332;6.922;2023-03-31T18:41:23;13.40;91.20
53254;DHT22;39148;53.332;6.922;2023-03-31T18:58:28;13.30;90.60
53254;DHT22;39148;53.332;6.922;2023-03-31T19:00:55;13.30;90.70
53254;DHT22;39148;53.332;6.922;2023-03-31T19:03:22;13.40;91.30
53254;DHT22;39148;53.332;6.922;2023-03-31T19:05:48;13.40;90.90
53254;DHT22;39148;53.332;6.922;2023-03-31T19:13:07;13.30;91.00
53254;DHT22;39148;53.332;6.922;2023-03-31T19:15:32;13.30;91.50
53254;DHT22;39148;53.332;6.922;2023-03-31T19:18:01;13.40;91.60
53254;DHT22;39148;53.332;6.922;2023-03-31T19:22:53;13.30;91.10
53254;DHT22;39148;53.332;6.922;2023-03-31T19:25:20;13.20;91.60
53254;DHT22;39148;53.332;6.922;2023-03-31T19:27:46;13.30;91.50
53254;DHT22;39148;53.332;6.922;2023-03-31T19:30:18;13.10;90.10
53254;DHT22;39148;53.332;6.922;2023-03-31T19:32:45;13.20;90.70
53254;DHT22;39148;53.332;6.922;2023-03-31T19:35:13;13.30;90.40
53254;DHT22;39148;53.332;6.922;2023-03-31T19:37:39;13.30;90.80
53254;DHT22;39148;53.332;6.922;2023-03-31T19:40:06;13.20;90.50
53254;DHT22;39148;53.332;6.922;2023-03-31T19:49:51;13.20;91.60
53254;DHT22;39148;53.332;6.922;2023-03-31T19:52:17;13.30;90.40
53254;DHT22;39148;53.332;6.922;2023-03-31T19:54:43;13.30;91.50
53254;DHT22;39148;53.332;6.922;2023-03-31T19:59:36;13.00;90.40
53254;DHT22;39148;53.332;6.922;2023-03-31T20:02:01;13.10;91.20
53254;DHT22;39148;53.332;6.922;2023-03-31T20:11:50;13.10;91.60
53254;DHT22;39148;53.332;6.922;2023-03-31T20:14:21;13.20;91.60
53254;DHT22;39148;53.332;6.922;2023-03-31T20:16:48;13.10;90.50
53254;DHT22;39148;53.332;6.922;2023-03-31T20:19:15;13.20;91.30
53254;DHT22;39148;53.332;6.922;2023-03-31T20:21:42;13.10;90.60
53254;DHT22;39148;53.332;6.922;2023-03-31T20:24:14;13.20;90.80
53254;DHT22;39148;53.332;6.922;2023-03-31T20:31:34;13.10;90.80
53254;DHT22;39148;53.332;6.922;2023-03-31T20:34:03;13.20;90.80
53254;DHT22;39148;53.332;6.922;2023-03-31T20:38:57;13.10;91.50
53254;DHT22;39148;53.332;6.922;2023-03-31T20:41:26;13.20;91.60
53254;DHT22;39148;53.332;6.922;2023-03-31T20:43:53;13.10;90.80
53254;DHT22;39148;53.332;6.922;2023-03-31T20:46:20;13.10;90.80
53254;DHT22;39148;53.332;6.922;2023-03-31T20:48:51;13.10;90.80
53254;DHT22;39148;53.332;6.922;2023-03-31T20:51:23;13.00;90.80
53254;DHT22;39148;53.332;6.922;2023-03-31T20:53:51;13.10;91.10
53254;DHT22;39148;53.332;6.922;2023-03-31T20:56:23;13.10;90.80
53254;DHT22;39148;53.332;6.922;2023-03-31T21:01:18;13.00;91.00
53254;DHT22;39148;53.332;6.922;2023-03-31T21:03:45;13.10;91.70
53254;DHT22;39148;53.332;6.922;2023-03-31T21:06:12;13.20;91.50
53254;DHT22;39148;53.332;6.922;2023-03-31T21:08:42;13.20;91.70
53254;DHT22;39148;53.332;6.922;2023-03-31T21:16:02;13.10;90.70
53254;DHT22;39148;53.332;6.922;2023-03-31T21:18:30;13.00;91.30
53254;DHT22;39148;53.332;6.922;2023-03-31T21:20:58;13.00;90.80
53254;DHT22;39148;53.332;6.922;2023-03-31T21:23:25;13.00;90.70
53254;DHT22;39148;53.332;6.922;2023-03-31T21:25:53;13.20;90.90
53254;DHT22;39148;53.332;6.922;2023-03-31T21:28:22;13.00;90.80
53254;DHT22;39148;53.332;6.922;2023-03-31T21:30:50;13.10;91.70
53254;DHT22;39148;53.332;6.922;2023-03-31T21:33:17;13.00;90.70
53254;DHT22;39148;53.332;6.922;2023-03-31T21:43:01;13.00;91.50
53254;DHT22;39148;53.332;6.922;2023-03-31T21:45:27;13.00;91.60
53254;DHT22;39148;53.332;6.922;2023-03-31T21:47:53;13.10;91.70
53254;DHT22;39148;53.332;6.922;2023-03-31T21:55:11;12.90;91.60
53254;DHT22;39148;53.332;6.922;2023-03-31T22:00:05;13.00;90.90
53254;DHT22;39148;53.332;6.922;2023-03-31T22:02:40;12.90;90.40
53254;DHT22;39148;53.332;6.922;2023-03-31T22:05:06;13.00;90.70
53254;DHT22;39148;53.332;6.922;2023-03-31T22:12:25;13.00;90.60
53254;DHT22;39148;53.332;6.922;2023-03-31T22:17:19;13.00;91.20
53254;DHT22;39148;53.332;6.922;2023-03-31T22:19:45;13.00;91.50
53254;DHT22;39148;53.332;6.922;2023-03-31T22:22:12;12.80;90.70
53254;DHT22;39148;53.332;6.922;2023-03-31T22:27:04;13.00;90.90
53254;DHT22;39148;53.332;6.922;2023-03-31T22:29:29;12.90;91.10
53254;DHT22;39148;53.332;6.922;2023-03-31T22:36:47;12.90;91.30
53254;DHT22;39148;53.332;6.922;2023-03-31T22:39:14;12.90;90.60
53254;DHT22;39148;53.332;6.922;2023-03-31T22:44:07;12.90;90.60
53254;DHT22;39148;53.332;6.922;2023-03-31T22:46:34;12.80;90.60
53254;DHT22;39148;53.332;6.922;2023-03-31T22:51:26;12.90;91.70
53254;DHT22;39148;53.332;6.922;2023-03-31T22:53:53;12.80;90.80
53254;DHT22;39148;53.332;6.922;2023-03-31T22:58:46;12.90;91.40
53254;DHT22;39148;53.332;6.922;2023-03-31T23:01:14;12.80;91.50
53254;DHT22;39148;53.332;6.922;2023-03-31T23:03:42;12.80;90.70
53254;DHT22;39148;53.332;6.922;2023-03-31T23:06:08;12.90;91.60
53254;DHT22;39148;53.332;6.922;2023-03-31T23:08:35;12.80;91.00
53254;DHT22;39148;53.332;6.922;2023-03-31T23:13:28;12.80;91.60
53254;DHT22;39148;53.332;6.922;2023-03-31T23:15:54;12.90;91.50
53254;DHT22;39148;53.332;6.922;2023-03-31T23:23:13;12.80;91.60
53254;DHT22;39148;53.332;6.922;2023-03-31T23:30:31;12.80;91.60
53254;DHT22;39148;53.332;6.922;2023-03-31T23:32:57;12.90;91.70
53254;DHT22;39148;53.332;6.922;2023-03-31T23:37:49;12.70;91.10
53254;DHT22;39148;53.332;6.922;2023-03-31T23:47:33;12.80;91.60
53254;DHT22;39148;53.332;6.922;2023-03-31T23:52:25;12.80;90.70
53254;DHT22;39148;53.332;6.922;2023-03-31T23:59:45;12.80;90.60
